Yorktown Express — WDD6127 — position and weather

sailwx.info

Track history (hours):
 
Tides and Currents Weather Stations Pressure Air Temp Water Temp Dewpoint Dewpoint Depression Visibility Wind Speed Wind Dir Waves Ship Positions

Yorktown Express

Owner: Marine Transport Management, Inc., Jacksonville, FL. More information available from US FCC via Universal Licensing System and Coast Guard Vessel Documentation Center.

Last reported at 2014-Oct-31 18:33 UTC. Time now 2014-Oct-31 19:03 UTC.
Position N 53°30' E 005°07'.

Type: Ship. MMSI: 367168650.

Date/timePositionNaut miles runAvg speedWind from/ knotsBaromVisibWave heightAir tempDewpointWater temp
2014-Oct-31 18:33N 53°30' E 005°07'1616.0
2014-Oct-31 17:33N 53°24' E 004°42'1616.1
2014-Oct-31 16:33N 53°10' E 004°29'1616.1
2014-Oct-31 15:33N 52°55' E 004°18'1615.8
2014-Oct-31 14:33N 52°43' E 004°01'1616.0
2014-Oct-31 13:33N 52°31' E 003°44'1615.7
2014-Oct-31 12:33N 52°18' E 003°29'1515.3
2014-Oct-31 11:33N 52°03' E 003°24'1515.0
2014-Oct-31 10:33N 51°49' E 003°18'1414.3
2014-Oct-31 09:34N 51°36' E 003°10'1211.6
2014-Oct-31 08:33N 51°24' E 003°06'1616.1
2014-Oct-31 07:34N 51°26' E 003°32'1211.6
2014-Oct-31 06:34N 51°21' E 003°49'9 8.7
2014-Oct-31 05:34N 51°23' E 004°02'9 9.2
2014-Oct-31 04:34N 51°20' E 004°16'0 0.2
2014-Oct-31 03:33N 51°20' E 004°17'0 0.0
2014-Oct-31 02:33N 51°20' E 004°17'0 0.0
2014-Oct-31 01:33N 51°20' E 004°17'0 0.0
2014-Oct-31 00:33N 51°20' E 004°17'0 0.0
2014-Oct-30 23:34N 51°20' E 004°17'0 0.0
2014-Oct-30 22:33N 51°20' E 004°16'0 0.0
2014-Oct-30 21:34N 51°20' E 004°17'0 0.0
2014-Oct-30 20:33N 51°20' E 004°17'0 0.0
2014-Oct-30 19:33N 51°20' E 004°17'0 0.0
2014-Oct-30 18:33N 51°20' E 004°17'0 0.0
2014-Oct-30 17:34N 51°20' E 004°17'0 0.0
2014-Oct-30 16:34N 51°20' E 004°17'0 0.0
2014-Oct-30 15:34N 51°20' E 004°17'0 0.0
2014-Oct-30 14:34N 51°20' E 004°17'0 0.0
2014-Oct-30 13:33N 51°20' E 004°17'0 0.0
2014-Oct-30 12:33N 51°20' E 004°17'0 0.0
2014-Oct-30 11:33N 51°20' E 004°17'0 0.0
2014-Oct-30 10:33N 51°20' E 004°17'0 0.0
2014-Oct-30 09:33N 51°20' E 004°17'0 0.0
2014-Oct-30 08:33N 51°20' E 004°17'0 0.0
2014-Oct-30 07:33N 51°20' E 004°17'0 0.0
2014-Oct-30 06:33N 51°20' E 004°17'0 0.0
2014-Oct-30 05:34N 51°20' E 004°17'0 0.0
2014-Oct-30 04:33N 51°20' E 004°17'0 0.0
2014-Oct-30 03:33N 51°20' E 004°17'0 0.0
2014-Oct-30 02:33N 51°20' E 004°17'0 0.0
2014-Oct-30 01:33N 51°20' E 004°17'0 0.0
2014-Oct-30 00:33N 51°20' E 004°17'0 0.0
2014-Oct-29 23:34N 51°20' E 004°17'0 0.0
2014-Oct-29 22:33N 51°20' E 004°17'0 0.0
2014-Oct-29 21:33N 51°20' E 004°17'5 5.0
2014-Oct-29 20:33N 51°23' E 004°10'7 7.4
2014-Oct-29 19:33N 51°26' E 003°59'1110.7
2014-Oct-29 18:34N 51°24' E 003°43'1110.7
2014-Oct-29 17:34N 51°25' E 003°25'1716.7
2014-Oct-29 16:33N 51°23' E 002°59'1211.4
2014-Oct-29 15:31N 51°22' E 002°40'8 7.9
2014-Oct-29 14:33N 51°21' E 002°27'9 9.5
2014-Oct-29 13:33N 51°17' E 002°15'1110.7
2014-Oct-29 12:33N 51°11' E 001°60'1211.9
2014-Oct-29 11:34N 51°06' E 001°43'1111.3
2014-Oct-29 10:34N 50°58' E 001°31'1312.6
2014-Oct-29 09:33N 50°46' E 001°23'3215.2
2014-Oct-29 07:25N 50°27' E 000°42'1416.3
2014-Oct-29 06:32N 50°23' E 000°20'14017.4
2014-Oct-28 22:28N 49°47' W 003°11'72017.8
2014-Oct-27 06:00N 46°42' W 020°36'91019.0 200 / 261003.0 5.4 2.016.014.317.0
2014-Oct-25 06:00N 42°12' W 040°54'11118.5 180 / 261016.0 5.4 2.019.017.421.0
2014-Oct-25 00:00N 41°42' W 043°18'44018.3 170 / 301017.510.8 3.021.019.425.0
2014-Oct-24 00:00N 40°30' W 052°54'45118.8 140 / 241015.0 5.4 2.023.019.925.0
2014-Oct-23 00:00N 38°30' W 062°18'   150 / 201013.5 5.4 4.023.018.327.0
Track history (hours):
 
Tides and Currents Weather Stations Pressure Air Temp Water Temp Dewpoint Dewpoint Depression Visibility Wind Speed Wind Dir Waves Ship Positions

Yorktown Express

Owner: Marine Transport Management, Inc., Jacksonville, FL. More information available from US FCC via Universal Licensing System and Coast Guard Vessel Documentation Center.

Last reported at 2014-Oct-31 18:33 UTC. Time now 2014-Oct-31 19:03 UTC.
Position N 53°30' E 005°07'.

Type: Ship. MMSI: 367168650.

Date/timePositionNaut miles runAvg speedWind from/ knotsBaromVisibWave heightAir tempDewpointWater temp
2014-Oct-31 18:33N 53°30' E 005°07'1616.0
2014-Oct-31 17:33N 53°24' E 004°42'1616.1
2014-Oct-31 16:33N 53°10' E 004°29'1616.1
2014-Oct-31 15:33N 52°55' E 004°18'1615.8
2014-Oct-31 14:33N 52°43' E 004°01'1616.0
2014-Oct-31 13:33N 52°31' E 003°44'1615.7
2014-Oct-31 12:33N 52°18' E 003°29'1515.3
2014-Oct-31 11:33N 52°03' E 003°24'1515.0
2014-Oct-31 10:33N 51°49' E 003°18'1414.3
2014-Oct-31 09:34N 51°36' E 003°10'1211.6
2014-Oct-31 08:33N 51°24' E 003°06'1616.1
2014-Oct-31 07:34N 51°26' E 003°32'1211.6
2014-Oct-31 06:34N 51°21' E 003°49'9 8.7
2014-Oct-31 05:34N 51°23' E 004°02'9 9.2
2014-Oct-31 04:34N 51°20' E 004°16'0 0.2
2014-Oct-31 03:33N 51°20' E 004°17'0 0.0
2014-Oct-31 02:33N 51°20' E 004°17'0 0.0
2014-Oct-31 01:33N 51°20' E 004°17'0 0.0
2014-Oct-31 00:33N 51°20' E 004°17'0 0.0
2014-Oct-30 23:34N 51°20' E 004°17'0 0.0
2014-Oct-30 22:33N 51°20' E 004°16'0 0.0
2014-Oct-30 21:34N 51°20' E 004°17'0 0.0
2014-Oct-30 20:33N 51°20' E 004°17'0 0.0
2014-Oct-30 19:33N 51°20' E 004°17'0 0.0
2014-Oct-30 18:33N 51°20' E 004°17'0 0.0
2014-Oct-30 17:34N 51°20' E 004°17'0 0.0
2014-Oct-30 16:34N 51°20' E 004°17'0 0.0
2014-Oct-30 15:34N 51°20' E 004°17'0 0.0
2014-Oct-30 14:34N 51°20' E 004°17'0 0.0
2014-Oct-30 13:33N 51°20' E 004°17'0 0.0
2014-Oct-30 12:33N 51°20' E 004°17'0 0.0
2014-Oct-30 11:33N 51°20' E 004°17'0 0.0
2014-Oct-30 10:33N 51°20' E 004°17'0 0.0
2014-Oct-30 09:33N 51°20' E 004°17'0 0.0
2014-Oct-30 08:33N 51°20' E 004°17'0 0.0
2014-Oct-30 07:33N 51°20' E 004°17'0 0.0
2014-Oct-30 06:33N 51°20' E 004°17'0 0.0
2014-Oct-30 05:34N 51°20' E 004°17'0 0.0
2014-Oct-30 04:33N 51°20' E 004°17'0 0.0
2014-Oct-30 03:33N 51°20' E 004°17'0 0.0
2014-Oct-30 02:33N 51°20' E 004°17'0 0.0
2014-Oct-30 01:33N 51°20' E 004°17'0 0.0
2014-Oct-30 00:33N 51°20' E 004°17'0 0.0
2014-Oct-29 23:34N 51°20' E 004°17'0 0.0
2014-Oct-29 22:33N 51°20' E 004°17'0 0.0
2014-Oct-29 21:33N 51°20' E 004°17'5 5.0
2014-Oct-29 20:33N 51°23' E 004°10'7 7.4
2014-Oct-29 19:33N 51°26' E 003°59'1110.7
2014-Oct-29 18:34N 51°24' E 003°43'1110.7
2014-Oct-29 17:34N 51°25' E 003°25'1716.7
2014-Oct-29 16:33N 51°23' E 002°59'1211.4
2014-Oct-29 15:31N 51°22' E 002°40'8 7.9
2014-Oct-29 14:33N 51°21' E 002°27'9 9.5
2014-Oct-29 13:33N 51°17' E 002°15'1110.7
2014-Oct-29 12:33N 51°11' E 001°60'1211.9
2014-Oct-29 11:34N 51°06' E 001°43'1111.3
2014-Oct-29 10:34N 50°58' E 001°31'1312.6
2014-Oct-29 09:33N 50°46' E 001°23'3215.2
2014-Oct-29 07:25N 50°27' E 000°42'1416.3
2014-Oct-29 06:32N 50°23' E 000°20'14017.4
2014-Oct-28 22:28N 49°47' W 003°11'72017.8
2014-Oct-27 06:00N 46°42' W 020°36'91019.0 200 / 261003.0 5.4 2.016.014.317.0
2014-Oct-25 06:00N 42°12' W 040°54'11118.5 180 / 261016.0 5.4 2.019.017.421.0
2014-Oct-25 00:00N 41°42' W 043°18'44018.3 170 / 301017.510.8 3.021.019.425.0
2014-Oct-24 00:00N 40°30' W 052°54'45118.8 140 / 241015.0 5.4 2.023.019.925.0
2014-Oct-23 00:00N 38°30' W 062°18'   150 / 201013.5 5.4 4.023.018.327.0

Dump ship's entire track history